createdAt,value
2018-07-02T11:18:41.992Z,2068.00
2018-07-02T11:19:41.932Z,2072.00
2018-07-02T11:20:41.918Z,2080.00
2018-07-02T11:21:41.962Z,2088.00
2018-07-02T11:22:41.893Z,2096.00
2018-07-02T11:23:41.888Z,2096.00
2018-07-02T11:24:41.972Z,2128.00
2018-07-02T11:25:41.862Z,2140.00
2018-07-02T11:26:41.909Z,2140.00
2018-07-02T11:27:41.841Z,2144.00
2018-07-02T11:28:41.919Z,2148.00
2018-07-02T11:29:41.815Z,2160.00
2018-07-02T11:30:41.813Z,2136.00
2018-07-02T11:31:42.034Z,2144.00
2018-07-02T11:32:41.788Z,2144.00
2018-07-02T11:33:41.774Z,2152.00
2018-07-02T11:34:41.762Z,2160.00
2018-07-02T11:35:41.751Z,2164.00
2018-07-02T11:36:41.797Z,2164.00
2018-07-02T11:37:41.743Z,2172.00
2018-07-02T11:38:41.751Z,2184.00
2018-07-02T11:39:41.713Z,2176.00
2018-07-02T11:40:41.705Z,2192.00
2018-07-02T11:41:41.826Z,2192.00
2018-07-02T11:42:41.756Z,2208.00
2018-07-02T11:43:41.678Z,2208.00
2018-07-02T11:44:41.663Z,2212.00
2018-07-02T11:45:41.653Z,2220.00
2018-07-02T11:46:41.636Z,2220.00
2018-07-02T11:47:41.683Z,2224.00
2018-07-02T11:48:41.639Z,2228.00
2018-07-02T11:49:41.635Z,2236.00
2018-07-02T11:50:41.597Z,2236.00
2018-07-02T11:51:41.632Z,2236.00
2018-07-02T11:52:41.639Z,2244.00
2018-07-02T11:53:41.574Z,2256.00
2018-07-02T11:54:41.577Z,2256.00
2018-07-02T11:55:41.545Z,2264.00
2018-07-02T11:56:41.554Z,2272.00
2018-07-02T11:57:41.595Z,2288.00
2018-07-02T11:58:41.517Z,2284.00
2018-07-02T11:59:41.504Z,2288.00
2018-07-02T12:00:41.495Z,2292.00
2018-07-02T12:01:41.480Z,2304.00
2018-07-02T12:02:41.531Z,2308.00
2018-07-02T12:03:41.461Z,2312.00
2018-07-02T12:04:41.454Z,2328.00
2018-07-02T12:05:41.446Z,2328.00
2018-07-02T12:06:41.430Z,2332.00
2018-07-02T12:07:41.474Z,2344.00
2018-07-02T12:08:41.408Z,2340.00
2018-07-02T12:09:41.396Z,2340.00
2018-07-02T12:10:41.389Z,2352.00
2018-07-02T12:11:41.379Z,2352.00
2018-07-02T12:12:41.423Z,2372.00
2018-07-02T12:13:41.354Z,2376.00
2018-07-02T12:14:41.346Z,2380.00
2018-07-02T12:15:41.334Z,2400.00
2018-07-02T12:16:41.332Z,2424.00
2018-07-02T12:17:41.378Z,2436.00
2018-07-02T12:18:41.392Z,2460.00
2018-07-02T12:19:41.304Z,2468.00
2018-07-02T12:20:41.387Z,2484.00
2018-07-02T12:21:41.283Z,2496.00
2018-07-02T12:22:41.329Z,2504.00
2018-07-02T12:23:41.257Z,2520.00
2018-07-02T12:24:41.247Z,2540.00
2018-07-02T12:25:41.232Z,2560.00
2018-07-02T12:26:41.220Z,2572.00
2018-07-02T12:27:41.277Z,2600.00
2018-07-02T12:28:41.198Z,2616.00
2018-07-02T12:29:41.193Z,2628.00
2018-07-02T12:30:41.181Z,2648.00
2018-07-02T12:31:41.169Z,2680.00
2018-07-02T12:32:41.205Z,2708.00
2018-07-02T12:33:41.150Z,2744.00
2018-07-02T12:34:41.138Z,2768.00
2018-07-02T12:35:41.124Z,2796.00
2018-07-02T12:36:41.115Z,2848.00
2018-07-02T12:37:41.171Z,2884.00
2018-07-02T12:38:41.093Z,2928.00
2018-07-02T12:39:41.078Z,2972.00
2018-07-02T12:40:41.072Z,3024.00
2018-07-02T12:41:41.066Z,3060.00
2018-07-02T12:42:41.109Z,3120.00
2018-07-02T12:43:41.037Z,3196.00
2018-07-02T12:44:41.029Z,3264.00
2018-07-02T12:45:41.021Z,3336.00
2018-07-02T12:46:41.023Z,3396.00
2018-07-02T12:47:41.058Z,3472.00
2018-07-02T12:48:40.991Z,3564.00
2018-07-02T12:49:40.976Z,3660.00
2018-07-02T12:50:40.965Z,3788.00
2018-07-02T12:51:40.952Z,3924.00
2018-07-02T12:52:41.004Z,4056.00
2018-07-02T12:53:40.938Z,4168.00
2018-07-02T12:54:40.925Z,4296.00
2018-07-02T12:55:40.949Z,4404.00
2018-07-02T12:56:40.922Z,4520.00
2018-07-02T12:57:40.958Z,4612.00
2018-07-02T12:58:40.881Z,4768.00
2018-07-02T12:59:40.869Z,4928.00
2018-07-02T13:00:40.857Z,5100.00
2018-07-02T13:01:41.023Z,5228.00
2018-07-02T13:02:40.904Z,5464.00
2018-07-02T13:03:40.828Z,5592.00
2018-07-02T13:04:40.819Z,5820.00
2018-07-02T13:05:40.806Z,6148.00
2018-07-02T13:06:40.794Z,6628.00
2018-07-02T13:07:40.847Z,7696.00
2018-07-02T13:08:40.772Z,6968.00
2018-07-02T13:09:40.763Z,6732.00
2018-07-02T13:10:40.759Z,7432.00
2018-07-02T13:11:40.754Z,7364.00
2018-07-02T13:12:40.792Z,8184.00
2018-07-02T13:13:40.730Z,7912.00
2018-07-02T13:14:40.715Z,8320.00
2018-07-02T13:15:40.702Z,8652.00
2018-07-02T13:16:40.695Z,8576.00
2018-07-02T13:17:40.734Z,9652.00
2018-07-02T13:18:40.671Z,11524.00
2018-07-02T13:19:40.663Z,13632.00
2018-07-02T13:20:40.679Z,15360.00
2018-07-02T13:21:40.640Z,31168.00
2018-07-02T13:22:40.702Z,71232.00
2018-07-02T13:23:40.619Z,89312.00
2018-07-02T13:24:40.608Z,90816.00
2018-07-02T13:25:40.597Z,91776.00
2018-07-02T13:26:40.733Z,95200.00
2018-07-02T13:27:40.579Z,90400.00
2018-07-02T13:28:40.624Z,93152.00
2018-07-02T13:29:40.565Z,87776.00
2018-07-02T13:30:40.546Z,84288.00
2018-07-02T13:31:40.536Z,79904.00
2018-07-02T13:32:40.528Z,74848.00
2018-07-02T13:33:40.565Z,72192.00
2018-07-02T13:34:40.505Z,74848.00
2018-07-02T13:35:40.496Z,77824.00
2018-07-02T13:36:40.522Z,82400.00
2018-07-02T13:37:40.489Z,87648.00
2018-07-02T13:38:40.522Z,86304.00
2018-07-02T13:39:40.452Z,98944.00
2018-07-02T13:40:40.444Z,118272.00
2018-07-02T13:41:40.485Z,120288.00
2018-07-02T13:42:40.428Z,104608.00
2018-07-02T13:43:40.469Z,80448.00
2018-07-02T13:44:40.406Z,53120.00
2018-07-02T13:45:40.391Z,36672.00
2018-07-02T13:46:40.385Z,29120.00
2018-07-02T13:47:40.379Z,27200.00
2018-07-02T13:48:40.420Z,26656.00
2018-07-02T13:49:40.354Z,26720.00
2018-07-02T13:50:40.344Z,26624.00
2018-07-02T13:51:40.339Z,27008.00
2018-07-02T13:52:40.324Z,27392.00
2018-07-02T13:53:40.503Z,27808.00
2018-07-02T13:54:40.406Z,28000.00
2018-07-02T13:55:40.399Z,28000.00
2018-07-02T13:56:40.395Z,28128.00
2018-07-02T13:57:40.358Z,28672.00
2018-07-02T13:58:40.364Z,28960.00
2018-07-02T13:59:40.274Z,29376.00
2018-07-02T14:00:40.318Z,29312.00
2018-07-02T14:01:40.249Z,29824.00
2018-07-02T14:02:40.228Z,30272.00
2018-07-02T14:03:40.273Z,30880.00
2018-07-02T14:04:40.217Z,31392.00
2018-07-02T14:05:40.204Z,32192.00
2018-07-02T14:06:40.217Z,32672.00
2018-07-02T14:07:40.173Z,33408.00
2018-07-02T14:08:40.221Z,34176.00
2018-07-02T14:09:40.154Z,34560.00
2018-07-02T14:10:40.149Z,35264.00
2018-07-02T14:11:40.140Z,35904.00
2018-07-02T14:12:40.129Z,36128.00
2018-07-02T14:13:40.175Z,36576.00
2018-07-02T14:14:40.130Z,37312.00
2018-07-02T14:15:40.097Z,37856.00
2018-07-02T14:16:40.089Z,38592.00
2018-07-02T14:17:40.075Z,39232.00
2018-07-02T14:18:40.230Z,39808.00
2018-07-02T14:19:40.146Z,40640.00
2018-07-02T14:20:40.235Z,41440.00
2018-07-02T14:21:40.058Z,42080.00
2018-07-02T14:22:40.045Z,42368.00
2018-07-02T14:23:40.090Z,42688.00
2018-07-02T14:24:40.043Z,43360.00
2018-07-02T14:25:40.008Z,43712.00
2018-07-02T14:26:40.008Z,44576.00
2018-07-02T14:27:39.995Z,44640.00
2018-07-02T14:28:40.049Z,45216.00
2018-07-02T14:29:39.991Z,45152.00
2018-07-02T14:30:39.963Z,45280.00
2018-07-02T14:31:39.946Z,45888.00
2018-07-02T14:32:39.943Z,45568.00
2018-07-02T14:33:40.070Z,46112.00
2018-07-02T14:34:39.916Z,46016.00
2018-07-02T14:35:39.929Z,46080.00
2018-07-02T14:36:39.904Z,46528.00
2018-07-02T14:37:39.959Z,45792.00
2018-07-02T14:38:39.981Z,46336.00
2018-07-02T14:39:39.883Z,46144.00
2018-07-02T14:40:39.868Z,46336.00
2018-07-02T14:41:39.853Z,45888.00
2018-07-02T14:42:39.847Z,46208.00
2018-07-02T14:43:39.909Z,46560.00
2018-07-02T14:44:39.844Z,46112.00
2018-07-02T14:45:39.818Z,46240.00
2018-07-02T14:46:39.848Z,45856.00
2018-07-02T14:47:40.173Z,45824.00
2018-07-02T14:48:39.843Z,45568.00
2018-07-02T14:56:24.652Z,44672.00
2018-07-02T14:57:24.379Z,44352.00
2018-07-02T14:58:24.476Z,43872.00
2018-07-02T14:59:24.344Z,43968.00
2018-07-02T15:00:25.707Z,44064.00
2018-07-02T15:28:11.454Z,35808.00
2018-07-02T15:29:11.631Z,36992.00
2018-07-02T15:30:11.434Z,38176.00
2018-07-02T15:31:11.247Z,39232.00
2018-07-02T15:32:11.261Z,44160.00
2018-07-02T15:33:11.239Z,54272.00
2018-07-02T15:34:11.290Z,65472.00
2018-07-02T15:35:11.399Z,79616.00
2018-07-02T15:36:11.302Z,88416.00
2018-07-02T15:41:36.534Z,98368.00
2018-07-02T15:43:50.214Z,86208.00
2018-07-02T15:44:50.034Z,87936.00
2018-07-02T15:45:49.985Z,95840.00
2018-07-02T15:46:50.002Z,105312.00
2018-07-02T15:47:49.818Z,113792.00
2018-07-02T15:48:50.133Z,108960.00
2018-07-02T15:49:50.053Z,91968.00
2018-07-02T15:50:49.748Z,68448.00
2018-07-02T15:51:49.742Z,55616.00
2018-07-02T15:52:49.977Z,48992.00
2018-07-02T15:53:49.815Z,49600.00
2018-07-02T15:54:50.573Z,47808.00
2018-07-02T15:55:49.711Z,48352.00
2018-07-02T15:56:49.702Z,50592.00
2018-07-02T15:57:49.690Z,54368.00
2018-07-02T15:58:49.762Z,52640.00
2018-07-02T15:59:49.741Z,46272.00
2018-07-02T16:00:49.674Z,43584.00
2018-07-02T16:01:49.648Z,45696.00
2018-07-02T16:02:49.633Z,46656.00
2018-07-02T16:03:49.630Z,44256.00
2018-07-02T16:04:49.677Z,42368.00
2018-07-02T16:05:49.608Z,43360.00
2018-07-02T16:06:49.595Z,41472.00
2018-07-02T16:07:49.581Z,39904.00
2018-07-02T16:08:49.624Z,41984.00
2018-07-02T16:09:49.649Z,40640.00
2018-07-02T16:10:49.561Z,39136.00
2018-07-02T16:11:49.561Z,42368.00
2018-07-02T16:12:49.652Z,40064.00
2018-07-02T16:13:49.549Z,40064.00
2018-07-02T16:14:49.614Z,37664.00
2018-07-02T16:15:49.666Z,35488.00
2018-07-02T16:16:49.504Z,36320.00
2018-07-02T16:17:49.504Z,33920.00
2018-07-02T16:18:49.536Z,34432.00
2018-07-02T16:19:49.547Z,36928.00
2018-07-02T16:20:49.459Z,39392.00
2018-07-02T16:21:49.456Z,38176.00
2018-07-02T16:22:49.493Z,40736.00
2018-07-02T16:23:50.062Z,38240.00
2018-07-02T16:24:49.494Z,37760.00
2018-07-02T16:25:49.414Z,39136.00
2018-07-02T16:26:49.401Z,36320.00
2018-07-02T16:27:49.641Z,36128.00
2018-07-02T16:28:49.426Z,34208.00
2018-07-02T16:29:49.422Z,33152.00
2018-07-02T16:30:49.365Z,37120.00
2018-07-02T16:31:49.348Z,35968.00
2018-07-02T16:32:49.336Z,33568.00
2018-07-02T16:33:49.332Z,33312.00
2018-07-02T16:34:49.384Z,34400.00
2018-07-02T16:35:49.309Z,32896.00
2018-07-02T16:36:49.310Z,32640.00
2018-07-02T16:37:51.279Z,34304.00
2018-07-02T16:38:49.273Z,34112.00
2018-07-02T16:39:49.335Z,34080.00
2018-07-02T16:40:49.254Z,30240.00
2018-07-02T16:41:49.242Z,28960.00
2018-07-02T16:42:49.240Z,24832.00
2018-07-02T16:43:49.225Z,14272.00
2018-07-02T16:44:49.287Z,5896.00
2018-07-02T16:45:49.210Z,5792.00
2018-07-02T16:46:49.193Z,23072.00
2018-07-02T16:47:49.187Z,12000.00
2018-07-02T16:48:49.181Z,6468.00
2018-07-02T16:49:49.235Z,4820.00
2018-07-02T16:50:49.189Z,5508.00
2018-07-02T16:51:49.973Z,4232.00
2018-07-02T16:52:49.155Z,15648.00
2018-07-02T16:53:49.119Z,15520.00
2018-07-02T16:54:49.196Z,8116.00
2018-07-02T16:55:49.122Z,4008.00
2018-07-02T16:56:49.106Z,2692.00
2018-07-02T16:57:49.083Z,2456.00
2018-07-02T16:58:49.071Z,2156.00
2018-07-02T16:59:49.136Z,2184.00
2018-07-02T17:00:49.046Z,2136.00
2018-07-02T17:01:49.039Z,2148.00
2018-07-02T17:02:49.028Z,1976.00
2018-07-02T17:03:49.016Z,1984.00
2018-07-02T17:04:49.092Z,1920.00
2018-07-02T17:05:48.993Z,1920.00
2018-07-02T17:06:48.987Z,1956.00
2018-07-02T17:07:48.974Z,1988.00
2018-07-02T17:08:48.968Z,4232.00
2018-07-02T17:09:48.957Z,3536.00
2018-07-02T17:10:49.022Z,7484.00
2018-07-02T17:11:48.944Z,4660.00
2018-07-02T17:12:48.921Z,2124.00
2018-07-02T17:13:48.907Z,2512.00
2018-07-02T17:14:48.896Z,3816.00
2018-07-02T17:15:48.962Z,3568.00
2018-07-02T17:16:48.879Z,2432.00
2018-07-02T17:17:48.875Z,1960.00
2018-07-02T17:18:48.871Z,2408.00
2018-07-02T17:19:48.842Z,5188.00
2018-07-02T17:20:48.910Z,10232.00
2018-07-02T17:21:48.849Z,5148.00
2018-07-02T17:22:48.820Z,6916.00
2018-07-02T17:23:48.814Z,4564.00
2018-07-02T17:24:48.788Z,2432.00
2018-07-02T17:25:48.993Z,2532.00
2018-07-02T17:26:48.778Z,3276.00
2018-07-02T17:27:48.762Z,4400.00
2018-07-02T17:28:48.767Z,2724.00
2018-07-02T17:29:48.741Z,3392.00
2018-07-02T17:30:49.176Z,1812.00
2018-07-02T17:31:48.755Z,2480.00
2018-07-02T17:32:48.914Z,3296.00
2018-07-02T17:33:48.733Z,2368.00
2018-07-02T17:34:48.691Z,1772.00
2018-07-02T17:35:48.756Z,1752.00
2018-07-02T17:36:48.687Z,2328.00
2018-07-02T17:37:48.649Z,1816.00
2018-07-02T17:38:48.650Z,1680.00
2018-07-02T17:39:48.723Z,1740.00
2018-07-02T17:40:48.699Z,3584.00
2018-07-02T17:41:48.610Z,3680.00
2018-07-02T17:42:48.656Z,2820.00
2018-07-02T17:43:48.972Z,3876.00
2018-07-02T17:44:48.582Z,7384.00
2018-07-02T17:45:48.654Z,5572.00
2018-07-02T17:46:48.563Z,13984.00
2018-07-02T17:47:48.581Z,24224.00
2018-07-02T17:48:48.562Z,23744.00
2018-07-02T17:49:48.523Z,14080.00
2018-07-02T17:50:48.597Z,4880.00
2018-07-02T17:51:48.508Z,2184.00
2018-07-02T17:52:48.499Z,2440.00
2018-07-02T17:53:48.484Z,2668.00
2018-07-02T17:54:48.569Z,3000.00
2018-07-02T17:55:48.544Z,4640.00
2018-07-02T17:56:48.462Z,14112.00
2018-07-02T17:57:48.444Z,23488.00
2018-07-02T17:58:48.432Z,23520.00
2018-07-02T17:59:48.429Z,17312.00
2018-07-02T18:00:48.491Z,10184.00
2018-07-02T18:01:48.396Z,15648.00
2018-07-02T18:02:48.646Z,17440.00
2018-07-02T18:03:48.382Z,15872.00
2018-07-02T18:04:48.369Z,11832.00
2018-07-02T18:05:48.435Z,6672.00
2018-07-02T18:06:48.340Z,9248.00
2018-07-02T18:07:48.404Z,11000.00
2018-07-02T18:08:48.339Z,11708.00
2018-07-02T18:09:48.368Z,11332.00
2018-07-02T18:10:48.377Z,11760.00
2018-07-02T18:11:48.288Z,15584.00
2018-07-02T18:12:48.403Z,19264.00
2018-07-02T18:13:48.273Z,19904.00
2018-07-02T18:14:48.256Z,19424.00
2018-07-02T18:15:48.331Z,19456.00
2018-07-02T18:16:48.267Z,19648.00
2018-07-02T18:17:48.224Z,19552.00
2018-07-02T18:18:48.218Z,18784.00
2018-07-02T18:19:48.214Z,18656.00
2018-07-02T18:20:48.296Z,18912.00
2018-07-02T18:21:48.181Z,18784.00
2018-07-02T18:22:48.170Z,18112.00
2018-07-02T18:23:48.197Z,18848.00
2018-07-02T18:24:48.156Z,20992.00
2018-07-02T18:25:48.210Z,21568.00
2018-07-02T18:26:48.152Z,20928.00
2018-07-02T18:27:48.125Z,10384.00
2018-07-02T18:28:48.126Z,3064.00
2018-07-02T18:29:48.097Z,1184.00
2018-07-02T18:30:48.165Z,1156.00
2018-07-02T18:31:48.075Z,1116.00
2018-07-02T18:32:48.066Z,1100.00
2018-07-02T18:33:48.061Z,1148.00
2018-07-02T18:34:48.046Z,1160.00
2018-07-02T18:35:48.108Z,1116.00
2018-07-02T18:36:48.032Z,1140.00
2018-07-02T18:37:48.015Z,1168.00
2018-07-02T18:38:48.005Z,1056.00
2018-07-02T18:39:47.990Z,980.00
2018-07-02T18:40:48.050Z,980.00
2018-07-02T18:41:47.967Z,940.00
2018-07-02T18:42:47.962Z,896.00
2018-07-02T18:43:47.951Z,880.00
2018-07-02T18:44:47.938Z,868.00
2018-07-02T18:45:47.995Z,856.00
2018-07-02T18:46:47.912Z,832.00
2018-07-02T18:47:47.905Z,824.00
2018-07-02T18:48:47.889Z,812.00
2018-07-02T18:49:47.888Z,804.00
2018-07-02T18:50:47.882Z,788.00
2018-07-02T18:51:47.938Z,772.00
2018-07-02T18:52:47.855Z,760.00
2018-07-02T18:53:47.839Z,744.00
2018-07-02T18:54:47.826Z,736.00
2018-07-02T18:55:47.842Z,720.00
2018-07-02T18:56:47.878Z,708.00
2018-07-02T18:57:47.787Z,692.00
2018-07-02T18:58:47.780Z,676.00
2018-07-02T18:59:47.772Z,664.00
2018-07-02T19:00:47.757Z,652.00
2018-07-02T19:01:47.808Z,640.00
2018-07-02T19:02:47.758Z,624.00
2018-07-02T19:03:47.729Z,612.00
2018-07-02T19:04:47.714Z,600.00
2018-07-02T19:05:47.709Z,588.00
2018-07-02T19:06:47.761Z,572.00
2018-07-02T19:07:47.685Z,560.00
2018-07-02T19:08:47.672Z,544.00
2018-07-02T19:09:47.662Z,532.00
2018-07-02T19:10:47.655Z,516.00
2018-07-02T19:11:47.706Z,504.00
2018-07-02T19:12:47.632Z,488.00
2018-07-02T19:13:47.614Z,476.00
2018-07-02T19:14:47.606Z,464.00
2018-07-02T19:15:47.599Z,452.00
2018-07-02T19:16:47.774Z,440.00
2018-07-02T19:17:47.577Z,420.00
2018-07-02T19:18:47.564Z,408.00
2018-07-02T19:19:47.556Z,396.00
2018-07-02T19:20:47.546Z,384.00
2018-07-02T19:21:47.605Z,368.00
2018-07-02T19:22:47.526Z,356.00
2018-07-02T19:23:47.549Z,344.00
2018-07-02T19:24:47.499Z,328.00
2018-07-02T19:25:47.488Z,316.00
2018-07-02T19:26:47.548Z,304.00
2018-07-02T19:27:47.466Z,292.00
2018-07-02T19:28:47.456Z,280.00
2018-07-02T19:29:47.496Z,268.00
2018-07-02T19:30:47.431Z,252.00
2018-07-02T19:31:47.493Z,244.00
2018-07-02T19:32:47.416Z,232.00
2018-07-02T19:33:47.388Z,220.00
2018-07-02T19:34:47.385Z,208.00
2018-07-02T19:35:47.378Z,200.00
2018-07-02T19:36:47.431Z,192.00
2018-07-02T19:37:47.356Z,176.00
2018-07-02T19:38:47.344Z,168.00
2018-07-02T19:39:47.335Z,156.00
2018-07-02T19:40:47.380Z,152.00
2018-07-02T19:41:47.399Z,144.00
2018-07-02T19:42:47.300Z,132.00
2018-07-02T19:43:47.288Z,124.00
2018-07-02T19:44:47.295Z,116.00
2018-07-02T19:45:47.274Z,108.00
2018-07-02T19:46:47.329Z,100.00
2018-07-02T19:47:47.247Z,92.00
2018-07-02T19:48:47.236Z,88.00
2018-07-02T19:49:47.233Z,80.00
2018-07-02T19:50:47.216Z,76.00
2018-07-02T19:51:47.282Z,68.00
2018-07-02T19:52:47.192Z,64.00
2018-07-02T19:53:47.181Z,56.00
2018-07-02T19:54:47.175Z,52.00
2018-07-02T19:55:47.178Z,48.00
2018-07-02T19:56:47.302Z,44.00
2018-07-02T19:57:47.145Z,40.00
2018-07-02T19:58:47.124Z,36.00
2018-07-02T19:59:47.114Z,32.00
2018-07-02T20:00:47.109Z,28.00
2018-07-02T20:01:47.165Z,28.00
2018-07-02T20:02:47.131Z,24.00
2018-07-02T20:03:47.079Z,24.00
2018-07-02T20:04:47.058Z,20.00
2018-07-02T20:05:47.048Z,16.00
2018-07-02T20:06:48.341Z,16.00
2018-07-02T20:07:47.029Z,16.00
2018-07-02T20:08:47.027Z,12.00
2018-07-02T20:09:47.009Z,12.00
2018-07-02T20:10:46.995Z,12.00
2018-07-02T20:11:47.054Z,12.00
2018-07-02T20:12:46.976Z,8.00
2018-07-02T20:13:46.962Z,8.00
2018-07-02T20:14:46.961Z,4.00
2018-07-02T20:15:46.938Z,4.00
2018-07-02T20:16:46.988Z,4.00
2018-07-02T20:17:46.915Z,8.00
2018-07-02T20:18:46.963Z,4.00
2018-07-02T20:19:46.901Z,4.00
2018-07-02T20:20:46.889Z,4.00
2018-07-02T20:21:46.935Z,4.00
2018-07-02T20:22:46.863Z,4.00
2018-07-02T20:23:46.904Z,0.00
2018-07-02T20:24:46.853Z,4.00
2018-07-02T20:25:46.834Z,4.00
2018-07-02T20:26:46.890Z,0.00
2018-07-02T20:27:46.808Z,0.00
2018-07-02T20:28:46.797Z,0.00
2018-07-02T20:29:46.786Z,4.00
2018-07-02T20:30:46.776Z,4.00
2018-07-02T20:31:46.856Z,0.00
2018-07-02T20:32:46.757Z,0.00
2018-07-02T20:33:46.740Z,0.00
2018-07-02T20:34:46.754Z,0.00
2018-07-02T20:35:46.722Z,0.00
2018-07-02T20:36:46.709Z,0.00
2018-07-02T20:37:46.767Z,0.00
2018-07-02T20:38:46.688Z,0.00
2018-07-02T20:39:46.676Z,0.00
2018-07-02T20:40:46.660Z,0.00
2018-07-02T20:41:46.656Z,0.00
2018-07-02T20:42:46.723Z,0.00
2018-07-02T20:43:46.636Z,0.00
2018-07-02T20:44:46.653Z,0.00
2018-07-02T20:45:46.613Z,0.00
2018-07-02T20:46:46.586Z,0.00
2018-07-02T20:47:46.671Z,0.00
2018-07-02T20:48:46.578Z,0.00
2018-07-02T20:49:46.656Z,0.00
2018-07-02T20:50:46.552Z,0.00
2018-07-02T20:51:46.545Z,0.00
2018-07-02T20:52:46.603Z,0.00
2018-07-02T20:53:46.565Z,0.00
2018-07-02T20:54:46.519Z,0.00
2018-07-02T20:55:46.508Z,0.00
2018-07-02T20:56:46.488Z,0.00
2018-07-02T20:57:46.550Z,0.00
2018-07-02T20:58:46.467Z,0.00
2018-07-02T20:59:46.459Z,0.00
2018-07-02T21:00:46.447Z,0.00
2018-07-02T21:01:46.434Z,0.00
2018-07-02T21:02:46.500Z,0.00
2018-07-02T21:03:46.404Z,0.00
2018-07-02T21:04:46.402Z,0.00
2018-07-02T21:05:46.394Z,0.00
2018-07-02T21:06:46.383Z,0.00
2018-07-02T21:07:46.435Z,0.00
2018-07-02T21:08:46.357Z,0.00
2018-07-02T21:09:46.351Z,0.00
2018-07-02T21:10:46.477Z,0.00
2018-07-02T21:11:46.333Z,0.00
2018-07-02T21:12:46.388Z,0.00
2018-07-02T21:13:46.306Z,0.00
2018-07-02T21:14:46.300Z,0.00
2018-07-02T21:15:46.355Z,0.00
2018-07-02T21:16:46.266Z,0.00
2018-07-02T21:17:46.330Z,0.00
2018-07-02T21:18:46.256Z,0.00
2018-07-02T21:19:46.238Z,0.00
2018-07-02T21:20:46.226Z,0.00
2018-07-02T21:21:46.217Z,0.00
2018-07-02T21:22:46.275Z,0.00
2018-07-02T21:23:46.193Z,0.00
2018-07-02T21:24:46.181Z,0.00
2018-07-02T21:25:46.172Z,0.00
2018-07-02T21:26:46.158Z,0.00
2018-07-02T21:27:46.233Z,0.00
2018-07-02T21:28:46.145Z,0.00
2018-07-02T21:29:46.132Z,0.00
2018-07-02T21:30:46.113Z,0.00
2018-07-02T21:31:46.108Z,0.00
2018-07-02T21:32:46.175Z,0.00
2018-07-02T21:33:46.087Z,0.00
2018-07-02T21:34:46.078Z,0.00
2018-07-02T21:35:46.063Z,0.00
2018-07-02T21:36:46.051Z,0.00
2018-07-02T21:37:46.104Z,0.00
2018-07-02T21:38:46.031Z,0.00
2018-07-02T21:39:46.023Z,0.00
2018-07-02T21:40:46.009Z,0.00
2018-07-02T21:41:46.069Z,0.00
2018-07-02T21:42:46.052Z,0.00
2018-07-02T21:43:45.969Z,0.00
2018-07-02T21:44:45.963Z,0.00
2018-07-02T21:45:45.957Z,0.00
2018-07-02T21:46:45.936Z,0.00
2018-07-02T21:47:45.987Z,0.00
2018-07-02T21:48:45.916Z,0.00
2018-07-02T21:49:45.903Z,0.00
2018-07-02T21:50:45.893Z,0.00
2018-07-02T21:51:45.895Z,0.00
2018-07-02T21:52:45.940Z,0.00
2018-07-02T21:53:45.861Z,0.00
2018-07-02T21:54:45.852Z,0.00
2018-07-02T21:55:45.838Z,0.00
2018-07-02T21:56:45.830Z,0.00
2018-07-02T21:57:45.889Z,0.00
2018-07-02T21:58:45.801Z,0.00
2018-07-02T21:59:45.797Z,0.00
2018-07-02T22:00:45.782Z,0.00
2018-07-02T22:01:45.772Z,0.00
2018-07-02T22:02:49.432Z,0.00
2018-07-02T22:03:45.746Z,0.00
2018-07-02T22:04:45.740Z,0.00
2018-07-02T22:05:45.733Z,0.00
2018-07-02T22:06:45.713Z,0.00
2018-07-02T22:07:45.728Z,0.00
2018-07-02T22:08:45.764Z,0.00
2018-07-02T22:09:45.681Z,0.00
2018-07-02T22:10:45.672Z,0.00
2018-07-02T22:11:45.659Z,0.00
2018-07-02T22:12:45.732Z,0.00
2018-07-02T22:13:45.642Z,0.00
2018-07-02T22:14:45.627Z,0.00
2018-07-02T22:15:45.611Z,0.00
2018-07-02T22:16:45.610Z,0.00
2018-07-02T22:17:45.593Z,0.00
2018-07-02T22:18:45.663Z,0.00
2018-07-02T22:19:45.576Z,0.00
2018-07-02T22:20:45.560Z,0.00
2018-07-02T22:21:45.545Z,0.00
2018-07-02T22:22:45.541Z,0.00
2018-07-02T22:23:45.596Z,0.00
2018-07-02T22:24:45.516Z,0.00
2018-07-02T22:25:45.508Z,0.00
2018-07-02T22:26:45.493Z,0.00
2018-07-02T22:27:45.484Z,0.00
2018-07-02T22:28:45.545Z,0.00
2018-07-02T22:29:45.467Z,0.00
2018-07-02T22:30:45.454Z,0.00
2018-07-02T22:31:45.439Z,0.00
2018-07-02T22:32:45.424Z,0.00
2018-07-02T22:33:45.485Z,0.00
2018-07-02T22:34:45.404Z,0.00
2018-07-02T22:35:45.395Z,0.00
2018-07-02T22:36:45.386Z,0.00
2018-07-02T22:37:45.368Z,0.00
2018-07-02T22:38:45.423Z,0.00
2018-07-02T22:39:45.354Z,0.00
2018-07-02T22:40:45.338Z,0.00
2018-07-02T22:41:45.330Z,0.00
2018-07-02T22:42:45.329Z,0.00
2018-07-02T22:43:45.436Z,0.00
2018-07-02T22:44:45.293Z,0.00
2018-07-02T22:45:45.285Z,0.00
2018-07-02T22:46:45.274Z,0.00
2018-07-02T22:47:45.266Z,0.00
2018-07-02T22:48:45.324Z,0.00
2018-07-02T22:49:45.285Z,0.00
2018-07-02T22:50:45.232Z,0.00
2018-07-02T22:51:45.219Z,0.00
2018-07-02T22:52:45.213Z,0.00
2018-07-02T22:53:45.273Z,0.00
2018-07-02T22:54:45.188Z,0.00
2018-07-02T22:55:45.174Z,0.00
2018-07-02T22:56:45.166Z,0.00
2018-07-02T22:57:45.155Z,0.00
2018-07-02T22:58:45.215Z,0.00
2018-07-02T22:59:45.134Z,0.00
2018-07-02T23:00:45.127Z,0.00
2018-07-02T23:01:45.130Z,0.00
2018-07-02T23:02:45.104Z,0.00
2018-07-02T23:03:45.167Z,0.00
2018-07-02T23:04:45.077Z,0.00
2018-07-02T23:05:45.074Z,0.00
2018-07-02T23:06:45.042Z,0.00
2018-07-02T23:07:45.049Z,0.00
2018-07-02T23:08:45.143Z,0.00
2018-07-02T23:09:45.022Z,0.00
2018-07-02T23:10:45.011Z,0.00
2018-07-02T23:11:45.008Z,0.00
2018-07-02T23:12:44.988Z,0.00
2018-07-02T23:13:45.219Z,0.00
2018-07-02T23:14:44.965Z,0.00
2018-07-02T23:15:44.957Z,0.00
2018-07-02T23:16:44.945Z,0.00
2018-07-02T23:17:44.943Z,0.00
2018-07-02T23:18:45.249Z,0.00
2018-07-02T23:19:44.915Z,0.00
2018-07-02T23:20:44.906Z,0.00
2018-07-02T23:21:44.889Z,0.00
2018-07-02T23:22:44.885Z,0.00
2018-07-02T23:23:44.936Z,0.00
2018-07-02T23:24:44.858Z,0.00
2018-07-02T23:25:44.844Z,0.00
2018-07-02T23:26:44.832Z,0.00
2018-07-02T23:27:44.822Z,0.00
2018-07-02T23:28:46.054Z,0.00
2018-07-02T23:29:44.809Z,0.00
2018-07-02T23:30:44.794Z,0.00
2018-07-02T23:31:44.779Z,0.00
2018-07-02T23:32:44.764Z,0.00
2018-07-02T23:33:45.396Z,0.00
2018-07-02T23:34:44.754Z,0.00
2018-07-02T23:35:44.739Z,0.00
2018-07-02T23:36:44.740Z,0.00
2018-07-02T23:37:44.715Z,0.00
2018-07-02T23:38:45.449Z,0.00
2018-07-02T23:39:44.695Z,0.00
2018-07-02T23:40:44.682Z,0.00
2018-07-02T23:41:44.668Z,0.00
2018-07-02T23:42:44.662Z,0.00
2018-07-02T23:43:45.491Z,0.00
2018-07-02T23:44:44.635Z,0.00
2018-07-02T23:45:44.623Z,0.00
2018-07-02T23:46:44.613Z,0.00
2018-07-02T23:47:44.604Z,0.00
2018-07-02T23:48:45.540Z,0.00
2018-07-02T23:49:44.581Z,0.00
2018-07-02T23:50:44.567Z,0.00
2018-07-02T23:51:44.562Z,0.00
2018-07-02T23:52:44.549Z,0.00
2018-07-02T23:53:45.537Z,0.00
2018-07-02T23:54:44.516Z,0.00
2018-07-02T23:55:44.512Z,0.00
2018-07-02T23:56:44.504Z,0.00
2018-07-02T23:57:44.584Z,0.00
2018-07-02T23:58:44.479Z,0.00
2018-07-02T23:59:44.535Z,0.00
